Dawson Community Airport
KGDV : now visible

Airfield :











YOU CAN JOIN US ON...

 
LOGIN :

Register | Disclaimer

   EN    FR    IT 

 









Legend :    VFR   Marginal VFR   IFR   Intensive IFR   Very Intensive IFR
Visi :
Ceiling :
>= 8 km
>= 3000ft
5 to 8 km
1000 to 3000 ft
1500m to 5 km
500 to 1000 ft
800 to 1500m
200 to 500 ft
< 800m
< 200 ft
Symbols :   Thunderstorms  Fog  Heavy snow  Heavy precipitations  Wind > 20 kt






- Airport Elevation : 2458 ft


KGDV - Dawson Community

CURRENT METAR :
  • 071756Z AUTO 21008KT 10SM CLR 09/03 A3048 RMK AO2 SLP339 T00940033 10094 21022 58012

EXPIRED METARs :
  • 071656Z AUTO 20005KT 10SM CLR 07/03 A3050 RMK AO2 SLP346 T00720028
  • 071556Z AUTO 21004KT 10SM CLR 04/02 A3051 RMK AO2 SLP351 T00440017

TAF KGDV
Valid from the 07 at 18:00 until the 08 at 18:00 UTC


071726Z 0718/0818 VRB05KT P6SM SKC
KZLC FIR / North America



MET'MAP, your aeronautical weather chart ! - Copyright ORBIFLY December 2007 - Disclaimer

ORBIFLY MET'MAP TEAM :

Programming & Development : Alexandra Zaïnal
Original concept : Baudouin d'Aumeries
Technical & hardware support : Manuel Goepfert
Assistance : Marc-Olivier Méhu




SOURCES & CREDITS :

   NOAA       Earth
Advisory